createdAt,value
2022-09-01T00:01:47.872Z,93456.09
2022-09-01T00:16:50.145Z,93448.25
2022-09-01T00:31:53.388Z,93434.50
2022-09-01T00:46:56.647Z,93458.34
2022-09-01T01:01:58.442Z,93454.53
2022-09-01T01:17:00.897Z,93463.91
2022-09-01T01:32:02.968Z,93451.16
2022-09-01T01:47:12.942Z,93457.44
2022-09-01T02:02:14.545Z,93471.13
2022-09-01T02:17:16.110Z,93473.97
2022-09-01T02:32:22.054Z,93473.03
2022-09-01T02:47:23.601Z,93452.97
2022-09-01T03:02:28.884Z,93451.44
2022-09-01T03:17:30.406Z,93459.56
2022-09-01T03:32:32.532Z,93456.84
2022-09-01T03:47:34.980Z,93464.44
2022-09-01T04:02:36.559Z,93466.72
2022-09-01T04:17:56.757Z,93469.91
2022-09-01T04:32:58.352Z,93452.69
2022-09-01T04:48:00.802Z,93461.56
2022-09-01T05:03:04.555Z,93464.06
2022-09-01T05:18:10.155Z,93454.91
2022-09-01T05:33:12.574Z,93452.78
2022-09-01T05:48:23.144Z,93454.13
2022-09-01T06:03:26.368Z,93469.38
2022-09-01T06:18:28.538Z,93442.94
2022-09-01T06:33:31.105Z,93447.50
2022-09-01T06:48:32.645Z,93439.75
2022-09-01T07:03:34.164Z,93436.59
2022-09-01T07:18:37.126Z,93441.00
2022-09-01T07:33:41.992Z,93451.72
2022-09-01T08:04:05.174Z,93449.56
2022-09-01T08:19:16.633Z,93440.88
2022-09-01T08:34:18.273Z,93436.13
2022-09-01T08:49:26.566Z,93428.53
2022-09-01T09:04:49.263Z,93408.59
2022-09-01T09:19:50.972Z,93398.28
2022-09-01T09:34:52.912Z,93388.44
2022-09-01T09:50:10.482Z,93383.94
2022-09-01T10:05:30.572Z,93375.31
2022-09-01T10:20:32.842Z,93373.38
2022-09-01T10:35:39.754Z,93359.38
2022-09-01T10:50:42.333Z,93351.63
2022-09-01T11:06:17.208Z,93343.22
2022-09-01T11:21:33.254Z,93329.44
2022-09-01T11:36:49.096Z,93314.31
2022-09-01T11:51:51.200Z,93292.41
2022-09-01T12:07:00.800Z,93284.38
2022-09-01T12:22:06.025Z,93281.03
2022-09-01T12:37:16.567Z,93275.28
2022-09-01T12:52:26.199Z,93271.22
2022-09-01T13:07:27.906Z,93261.25
2022-09-01T13:22:29.434Z,93241.09
2022-09-01T13:37:31.020Z,93242.31
2022-09-01T13:52:33.101Z,93263.47
2022-09-01T14:07:34.688Z,93254.16
2022-09-01T14:22:38.464Z,93252.38
2022-09-01T14:37:40.561Z,93239.19
2022-09-01T14:52:42.861Z,93224.59
2022-09-01T15:07:44.835Z,93222.69
2022-09-01T15:22:47.098Z,93221.34
2022-09-01T15:37:49.957Z,93226.97
2022-09-01T15:52:55.021Z,93260.38
2022-09-01T16:07:57.026Z,93270.34
2022-09-01T16:23:07.745Z,93288.94
2022-09-01T16:38:27.881Z,93290.78
2022-09-01T16:53:48.311Z,93307.13
2022-09-01T17:08:52.709Z,93302.25
2022-09-01T17:24:00.141Z,93290.44
2022-09-01T17:39:21.955Z,93312.78
2022-09-01T17:54:31.055Z,93313.22
2022-09-01T18:09:40.729Z,93315.63
2022-09-01T18:25:01.072Z,93316.06
2022-09-01T18:40:09.570Z,93324.19
2022-09-01T18:55:20.803Z,93334.34
2022-09-01T19:10:25.395Z,93344.47
2022-09-01T19:25:37.099Z,93366.22
2022-09-01T19:40:39.541Z,93381.91
2022-09-01T19:56:02.186Z,93379.75
2022-09-01T20:11:07.721Z,93363.50
2022-09-01T20:26:12.283Z,93374.03
2022-09-01T20:41:26.161Z,93355.53
2022-09-01T20:56:30.915Z,93354.03
2022-09-01T21:11:48.092Z,93356.84
2022-09-01T21:26:49.603Z,93366.28
2022-09-01T21:41:51.411Z,93375.13
2022-09-01T21:56:53.494Z,93386.78
2022-09-01T22:16:08.226Z,93375.53
2022-09-01T22:31:13.574Z,93347.09
2022-09-01T22:46:16.067Z,93324.63
2022-09-01T23:01:22.118Z,93345.78
2022-09-01T23:16:24.729Z,93330.56
2022-09-01T23:31:28.037Z,93331.41
2022-09-01T23:46:31.644Z,93322.50
